sensor_id;sensor_type;location;lat;lon;timestamp;noise_LAeq;noise_LA_min;noise_LA_max;noise_LA01;noise_LA95
67900;Laerm;54700;51.796;10.956;2023-07-31T00:00:40;48.57;27.16;65.71;;
67900;Laerm;54700;51.796;10.956;2023-07-31T00:03:07;28.80;27.06;32.36;;
67900;Laerm;54700;51.796;10.956;2023-07-31T00:05:34;47.55;27.01;63.36;;
67900;Laerm;54700;51.796;10.956;2023-07-31T00:08:01;36.07;26.95;52.33;;
67900;Laerm;54700;51.796;10.956;2023-07-31T00:10:28;28.87;26.92;50.48;;
67900;Laerm;54700;51.796;10.956;2023-07-31T00:12:54;34.87;27.38;49.97;;
67900;Laerm;54700;51.796;10.956;2023-07-31T00:15:21;50.32;26.80;65.94;;
67900;Laerm;54700;51.796;10.956;2023-07-31T00:17:50;28.31;26.78;40.72;;
67900;Laerm;54700;51.796;10.956;2023-07-31T00:20:17;48.68;27.20;65.86;;
67900;Laerm;54700;51.796;10.956;2023-07-31T00:22:43;49.81;27.04;65.52;;
67900;Laerm;54700;51.796;10.956;2023-07-31T00:25:10;28.43;26.98;33.58;;
67900;Laerm;54700;51.796;10.956;2023-07-31T00:27:37;50.26;27.08;67.96;;
67900;Laerm;54700;51.796;10.956;2023-07-31T00:30:05;50.91;26.96;67.69;;
67900;Laerm;54700;51.796;10.956;2023-07-31T00:32:32;28.60;26.87;41.94;;
67900;Laerm;54700;51.796;10.956;2023-07-31T00:35:00;28.82;27.44;35.80;;
67900;Laerm;54700;51.796;10.956;2023-07-31T00:37:27;29.62;27.50;42.92;;
67900;Laerm;54700;51.796;10.956;2023-07-31T00:39:54;54.08;29.10;69.00;;
67900;Laerm;54700;51.796;10.956;2023-07-31T00:42:21;34.78;28.59;47.43;;
67900;Laerm;54700;51.796;10.956;2023-07-31T00:44:47;38.30;31.00;49.52;;
67900;Laerm;54700;51.796;10.956;2023-07-31T00:47:14;50.64;31.01;66.56;;
67900;Laerm;54700;51.796;10.956;2023-07-31T00:49:41;39.00;31.94;47.91;;
67900;Laerm;54700;51.796;10.956;2023-07-31T00:52:10;33.32;30.02;45.10;;
67900;Laerm;54700;51.796;10.956;2023-07-31T00:54:37;39.41;30.19;48.10;;
67900;Laerm;54700;51.796;10.956;2023-07-31T00:57:04;37.03;31.66;50.89;;
67900;Laerm;54700;51.796;10.956;2023-07-31T00:59:33;39.21;33.59;48.32;;
67900;Laerm;54700;51.796;10.956;2023-07-31T01:02:00;38.05;33.84;49.07;;
67900;Laerm;54700;51.796;10.956;2023-07-31T01:04:27;52.66;32.31;70.08;;
67900;Laerm;54700;51.796;10.956;2023-07-31T01:06:58;55.12;35.46;70.08;;
67900;Laerm;54700;51.796;10.956;2023-07-31T01:09:39;40.35;34.80;48.48;;
67900;Laerm;54700;51.796;10.956;2023-07-31T01:12:09;42.78;34.34;51.09;;
67900;Laerm;54700;51.796;10.956;2023-07-31T01:14:39;41.05;35.28;49.12;;
67900;Laerm;54700;51.796;10.956;2023-07-31T01:17:06;44.45;37.49;52.06;;
67900;Laerm;54700;51.796;10.956;2023-07-31T01:19:33;41.14;36.96;48.92;;
67900;Laerm;54700;51.796;10.956;2023-07-31T01:22:23;46.16;39.26;52.61;;
67900;Laerm;54700;51.796;10.956;2023-07-31T01:25:11;40.76;35.23;47.95;;
67900;Laerm;54700;51.796;10.956;2023-07-31T01:27:48;45.56;38.23;56.37;;
67900;Laerm;54700;51.796;10.956;2023-07-31T01:30:22;53.60;35.86;70.45;;
67900;Laerm;54700;51.796;10.956;2023-07-31T01:32:52;61.92;34.60;78.70;;
67900;Laerm;54700;51.796;10.956;2023-07-31T01:35:21;52.43;33.79;67.21;;
67900;Laerm;54700;51.796;10.956;2023-07-31T01:37:48;43.42;33.36;53.50;;
67900;Laerm;54700;51.796;10.956;2023-07-31T01:40:15;34.55;30.63;49.30;;
67900;Laerm;54700;51.796;10.956;2023-07-31T01:42:41;37.94;31.12;47.13;;
67900;Laerm;54700;51.796;10.956;2023-07-31T01:45:11;51.25;33.14;67.01;;
67900;Laerm;54700;51.796;10.956;2023-07-31T01:47:38;40.67;33.43;48.03;;
67900;Laerm;54700;51.796;10.956;2023-07-31T01:50:05;37.18;32.54;45.68;;
67900;Laerm;54700;51.796;10.956;2023-07-31T01:52:32;51.34;33.39;66.40;;
67900;Laerm;54700;51.796;10.956;2023-07-31T01:54:59;51.34;31.46;68.80;;
67900;Laerm;54700;51.796;10.956;2023-07-31T01:57:26;53.90;31.83;67.95;;
67900;Laerm;54700;51.796;10.956;2023-07-31T01:59:53;51.19;30.43;66.53;;
67900;Laerm;54700;51.796;10.956;2023-07-31T02:02:22;56.87;31.02;74.04;;
67900;Laerm;54700;51.796;10.956;2023-07-31T02:04:49;34.50;30.29;40.97;;
67900;Laerm;54700;51.796;10.956;2023-07-31T02:07:16;52.30;30.72;66.90;;
67900;Laerm;54700;51.796;10.956;2023-07-31T02:09:43;56.02;32.66;70.47;;
67900;Laerm;54700;51.796;10.956;2023-07-31T02:12:09;48.94;32.89;66.13;;
67900;Laerm;54700;51.796;10.956;2023-07-31T02:14:36;36.45;32.16;44.79;;
67900;Laerm;54700;51.796;10.956;2023-07-31T02:17:03;48.98;31.85;65.38;;
67900;Laerm;54700;51.796;10.956;2023-07-31T02:19:32;52.35;32.53;66.39;;
67900;Laerm;54700;51.796;10.956;2023-07-31T02:21:58;39.68;32.68;49.24;;
67900;Laerm;54700;51.796;10.956;2023-07-31T02:24:25;54.16;30.85;67.88;;
67900;Laerm;54700;51.796;10.956;2023-07-31T02:26:52;34.17;30.31;49.26;;
67900;Laerm;54700;51.796;10.956;2023-07-31T02:29:19;56.40;31.43;71.73;;
67900;Laerm;54700;51.796;10.956;2023-07-31T02:31:46;54.62;31.69;69.00;;
67900;Laerm;54700;51.796;10.956;2023-07-31T02:34:13;57.73;30.00;69.58;;
67900;Laerm;54700;51.796;10.956;2023-07-31T02:36:41;56.45;32.54;67.92;;
67900;Laerm;54700;51.796;10.956;2023-07-31T02:39:07;50.89;31.93;67.65;;
67900;Laerm;54700;51.796;10.956;2023-07-31T02:41:35;52.76;35.10;67.52;;
67900;Laerm;54700;51.796;10.956;2023-07-31T02:44:02;49.06;32.44;64.06;;
67900;Laerm;54700;51.796;10.956;2023-07-31T02:46:29;34.99;31.34;43.23;;
67900;Laerm;54700;51.796;10.956;2023-07-31T02:48:57;50.36;32.91;65.20;;
67900;Laerm;54700;51.796;10.956;2023-07-31T02:51:24;60.00;32.16;75.41;;
67900;Laerm;54700;51.796;10.956;2023-07-31T02:53:52;56.31;34.21;71.36;;
67900;Laerm;54700;51.796;10.956;2023-07-31T02:56:19;56.76;32.38;71.13;;
67900;Laerm;54700;51.796;10.956;2023-07-31T02:58:45;53.88;33.58;68.37;;
67900;Laerm;54700;51.796;10.956;2023-07-31T03:01:12;40.70;32.15;55.16;;
67900;Laerm;54700;51.796;10.956;2023-07-31T03:03:41;54.16;32.15;66.29;;
67900;Laerm;54700;51.796;10.956;2023-07-31T03:06:08;58.22;35.78;69.22;;
67900;Laerm;54700;51.796;10.956;2023-07-31T03:08:35;54.21;36.43;67.48;;
67900;Laerm;54700;51.796;10.956;2023-07-31T03:11:03;56.79;34.52;68.75;;
67900;Laerm;54700;51.796;10.956;2023-07-31T03:13:30;53.76;34.01;68.18;;
67900;Laerm;54700;51.796;10.956;2023-07-31T03:15:57;55.81;34.33;69.90;;
67900;Laerm;54700;51.796;10.956;2023-07-31T03:18:24;52.03;35.83;66.08;;
67900;Laerm;54700;51.796;10.956;2023-07-31T03:20:51;59.75;38.24;70.89;;
67900;Laerm;54700;51.796;10.956;2023-07-31T03:23:17;58.00;38.48;70.40;;
67900;Laerm;54700;51.796;10.956;2023-07-31T03:25:55;58.31;36.77;70.78;;
67900;Laerm;54700;51.796;10.956;2023-07-31T03:28:24;56.23;36.00;67.97;;
67900;Laerm;54700;51.796;10.956;2023-07-31T03:30:51;59.77;43.95;68.94;;
67900;Laerm;54700;51.796;10.956;2023-07-31T03:33:18;63.28;36.49;76.85;;
67900;Laerm;54700;51.796;10.956;2023-07-31T03:35:45;58.10;33.95;72.76;;
67900;Laerm;54700;51.796;10.956;2023-07-31T03:38:13;54.90;38.06;67.25;;
67900;Laerm;54700;51.796;10.956;2023-07-31T03:40:40;61.62;35.97;71.39;;
67900;Laerm;54700;51.796;10.956;2023-07-31T03:43:07;57.81;34.70;72.39;;
67900;Laerm;54700;51.796;10.956;2023-07-31T03:45:35;56.20;33.66;69.10;;
67900;Laerm;54700;51.796;10.956;2023-07-31T03:48:03;57.81;33.12;69.61;;
67900;Laerm;54700;51.796;10.956;2023-07-31T03:50:30;55.04;33.35;69.50;;
67900;Laerm;54700;51.796;10.956;2023-07-31T03:52:57;60.97;33.23;70.11;;
67900;Laerm;54700;51.796;10.956;2023-07-31T03:55:24;61.85;37.96;71.17;;
67900;Laerm;54700;51.796;10.956;2023-07-31T03:57:51;60.13;37.26;77.22;;
67900;Laerm;54700;51.796;10.956;2023-07-31T04:00:18;58.66;34.41;71.91;;
67900;Laerm;54700;51.796;10.956;2023-07-31T04:02:47;56.01;33.97;68.56;;
67900;Laerm;54700;51.796;10.956;2023-07-31T04:05:14;59.84;34.68;71.83;;
67900;Laerm;54700;51.796;10.956;2023-07-31T04:07:41;58.21;35.50;72.01;;
67900;Laerm;54700;51.796;10.956;2023-07-31T04:10:09;59.85;40.28;70.25;;
67900;Laerm;54700;51.796;10.956;2023-07-31T04:12:35;57.52;36.96;70.02;;
67900;Laerm;54700;51.796;10.956;2023-07-31T04:15:04;57.91;35.79;69.28;;
67900;Laerm;54700;51.796;10.956;2023-07-31T04:17:31;62.21;42.80;75.59;;
67900;Laerm;54700;51.796;10.956;2023-07-31T04:19:59;60.67;41.25;71.35;;
67900;Laerm;54700;51.796;10.956;2023-07-31T04:22:27;57.71;40.83;69.37;;
67900;Laerm;54700;51.796;10.956;2023-07-31T04:24:54;61.08;37.01;70.59;;
67900;Laerm;54700;51.796;10.956;2023-07-31T04:27:21;63.96;50.45;72.77;;
67900;Laerm;54700;51.796;10.956;2023-07-31T04:29:48;61.69;37.61;71.73;;
67900;Laerm;54700;51.796;10.956;2023-07-31T04:32:15;60.09;38.72;71.59;;
67900;Laerm;54700;51.796;10.956;2023-07-31T04:34:42;63.91;45.20;74.38;;
67900;Laerm;54700;51.796;10.956;2023-07-31T04:37:10;61.18;38.35;71.06;;
67900;Laerm;54700;51.796;10.956;2023-07-31T04:39:37;64.24;37.01;76.82;;
67900;Laerm;54700;51.796;10.956;2023-07-31T04:42:04;60.38;37.52;70.10;;
67900;Laerm;54700;51.796;10.956;2023-07-31T04:44:31;62.43;41.01;70.26;;
67900;Laerm;54700;51.796;10.956;2023-07-31T04:46:58;55.74;39.03;68.64;;
67900;Laerm;54700;51.796;10.956;2023-07-31T04:49:25;59.60;38.24;70.54;;
67900;Laerm;54700;51.796;10.956;2023-07-31T04:51:52;62.79;42.01;70.79;;
67900;Laerm;54700;51.796;10.956;2023-07-31T04:54:20;64.28;44.91;72.33;;
67900;Laerm;54700;51.796;10.956;2023-07-31T04:56:47;61.25;43.16;71.12;;
67900;Laerm;54700;51.796;10.956;2023-07-31T04:59:14;62.55;40.93;72.97;;
67900;Laerm;54700;51.796;10.956;2023-07-31T05:01:41;62.72;41.84;75.09;;
67900;Laerm;54700;51.796;10.956;2023-07-31T05:04:08;64.39;47.68;74.58;;
67900;Laerm;54700;51.796;10.956;2023-07-31T05:06:35;64.00;42.03;76.02;;
67900;Laerm;54700;51.796;10.956;2023-07-31T05:09:02;64.64;41.19;75.50;;
67900;Laerm;54700;51.796;10.956;2023-07-31T05:11:33;62.89;48.33;75.82;;
67900;Laerm;54700;51.796;10.956;2023-07-31T05:14:00;64.02;44.20;73.97;;
67900;Laerm;54700;51.796;10.956;2023-07-31T05:16:26;59.88;39.22;70.23;;
67900;Laerm;54700;51.796;10.956;2023-07-31T05:18:53;63.67;42.42;72.76;;
67900;Laerm;54700;51.796;10.956;2023-07-31T05:21:20;60.24;40.91;70.02;;
67900;Laerm;54700;51.796;10.956;2023-07-31T05:23:47;57.98;38.49;70.52;;
67900;Laerm;54700;51.796;10.956;2023-07-31T05:26:14;62.90;42.54;71.21;;
67900;Laerm;54700;51.796;10.956;2023-07-31T05:28:42;63.99;42.93;73.97;;
67900;Laerm;54700;51.796;10.956;2023-07-31T05:31:09;62.59;40.59;71.78;;
67900;Laerm;54700;51.796;10.956;2023-07-31T05:33:36;63.21;44.48;74.28;;
67900;Laerm;54700;51.796;10.956;2023-07-31T05:36:04;62.68;37.91;70.54;;
67900;Laerm;54700;51.796;10.956;2023-07-31T05:38:31;60.39;37.13;70.77;;
67900;Laerm;54700;51.796;10.956;2023-07-31T05:40:57;64.60;43.33;74.71;;
67900;Laerm;54700;51.796;10.956;2023-07-31T05:43:24;63.33;48.41;73.00;;
67900;Laerm;54700;51.796;10.956;2023-07-31T05:45:52;64.75;39.44;76.09;;
67900;Laerm;54700;51.796;10.956;2023-07-31T05:48:19;58.75;36.87;71.66;;
67900;Laerm;54700;51.796;10.956;2023-07-31T05:50:46;61.37;37.77;71.22;;
67900;Laerm;54700;51.796;10.956;2023-07-31T05:53:13;65.20;40.82;75.60;;
67900;Laerm;54700;51.796;10.956;2023-07-31T05:55:40;63.20;39.85;72.08;;
67900;Laerm;54700;51.796;10.956;2023-07-31T05:58:07;61.87;38.16;74.09;;
67900;Laerm;54700;51.796;10.956;2023-07-31T06:00:34;63.50;47.16;71.49;;
67900;Laerm;54700;51.796;10.956;2023-07-31T06:03:04;62.81;39.68;72.88;;
67900;Laerm;54700;51.796;10.956;2023-07-31T06:05:31;61.16;39.52;70.63;;
67900;Laerm;54700;51.796;10.956;2023-07-31T06:07:58;59.80;35.36;71.59;;
67900;Laerm;54700;51.796;10.956;2023-07-31T06:10:25;62.22;36.31;71.89;;
67900;Laerm;54700;51.796;10.956;2023-07-31T06:12:52;61.31;35.84;71.22;;
67900;Laerm;54700;51.796;10.956;2023-07-31T06:15:19;61.06;40.45;69.13;;
67900;Laerm;54700;51.796;10.956;2023-07-31T06:17:46;58.92;37.67;71.89;;
67900;Laerm;54700;51.796;10.956;2023-07-31T06:20:14;63.51;38.06;80.41;;
67900;Laerm;54700;51.796;10.956;2023-07-31T06:22:41;60.13;40.27;68.54;;
67900;Laerm;54700;51.796;10.956;2023-07-31T06:25:08;61.41;38.33;73.12;;
67900;Laerm;54700;51.796;10.956;2023-07-31T06:27:35;60.03;40.46;70.05;;
67900;Laerm;54700;51.796;10.956;2023-07-31T06:30:02;60.83;41.22;69.56;;
67900;Laerm;54700;51.796;10.956;2023-07-31T06:32:30;61.94;38.86;72.92;;
67900;Laerm;54700;51.796;10.956;2023-07-31T06:34:57;63.30;39.69;71.72;;
67900;Laerm;54700;51.796;10.956;2023-07-31T06:37:25;62.00;40.03;71.65;;
67900;Laerm;54700;51.796;10.956;2023-07-31T06:39:52;63.10;45.05;71.85;;
67900;Laerm;54700;51.796;10.956;2023-07-31T06:42:19;63.03;46.40;76.44;;
67900;Laerm;54700;51.796;10.956;2023-07-31T06:44:46;63.06;45.65;71.75;;
67900;Laerm;54700;51.796;10.956;2023-07-31T06:47:13;62.12;41.65;69.40;;
67900;Laerm;54700;51.796;10.956;2023-07-31T06:49:40;60.97;42.16;71.17;;
67900;Laerm;54700;51.796;10.956;2023-07-31T06:52:07;62.09;46.69;70.73;;
67900;Laerm;54700;51.796;10.956;2023-07-31T06:54:36;60.49;43.83;69.86;;
67900;Laerm;54700;51.796;10.956;2023-07-31T06:57:03;65.37;46.39;78.14;;
67900;Laerm;54700;51.796;10.956;2023-07-31T06:59:30;62.57;42.40;71.20;;
67900;Laerm;54700;51.796;10.956;2023-07-31T07:01:57;62.01;45.37;70.31;;
67900;Laerm;54700;51.796;10.956;2023-07-31T07:04:24;63.71;43.90;71.88;;
67900;Laerm;54700;51.796;10.956;2023-07-31T07:06:52;61.75;39.17;72.02;;
67900;Laerm;54700;51.796;10.956;2023-07-31T07:09:19;59.78;40.57;69.63;;
67900;Laerm;54700;51.796;10.956;2023-07-31T07:11:47;60.35;37.06;70.42;;
67900;Laerm;54700;51.796;10.956;2023-07-31T07:14:14;63.78;50.40;72.75;;
67900;Laerm;54700;51.796;10.956;2023-07-31T07:16:41;62.19;43.32;70.21;;
67900;Laerm;54700;51.796;10.956;2023-07-31T07:19:07;64.97;40.34;80.80;;
67900;Laerm;54700;51.796;10.956;2023-07-31T07:21:34;61.69;42.24;69.14;;
67900;Laerm;54700;51.796;10.956;2023-07-31T07:24:01;62.50;41.98;71.85;;
67900;Laerm;54700;51.796;10.956;2023-07-31T07:26:28;63.61;47.74;74.45;;
67900;Laerm;54700;51.796;10.956;2023-07-31T07:28:57;74.80;46.50;94.99;;
67900;Laerm;54700;51.796;10.956;2023-07-31T07:31:26;62.17;45.07;70.04;;
67900;Laerm;54700;51.796;10.956;2023-07-31T07:33:53;62.44;43.35;76.44;;
67900;Laerm;54700;51.796;10.956;2023-07-31T07:36:21;62.51;43.19;74.77;;
67900;Laerm;54700;51.796;10.956;2023-07-31T07:38:47;63.44;40.85;72.18;;
67900;Laerm;54700;51.796;10.956;2023-07-31T07:41:14;63.88;40.57;74.57;;
67900;Laerm;54700;51.796;10.956;2023-07-31T07:43:41;68.09;40.26;88.21;;
67900;Laerm;54700;51.796;10.956;2023-07-31T07:46:10;63.34;42.60;74.00;;
67900;Laerm;54700;51.796;10.956;2023-07-31T07:48:37;63.44;44.85;77.41;;
67900;Laerm;54700;51.796;10.956;2023-07-31T07:51:03;64.26;45.18;75.54;;
67900;Laerm;54700;51.796;10.956;2023-07-31T07:53:30;61.48;40.85;70.05;;
67900;Laerm;54700;51.796;10.956;2023-07-31T07:55:57;62.53;37.60;79.68;;
67900;Laerm;54700;51.796;10.956;2023-07-31T07:58:24;62.28;48.04;70.30;;
67900;Laerm;54700;51.796;10.956;2023-07-31T08:00:51;62.41;40.29;74.49;;
67900;Laerm;54700;51.796;10.956;2023-07-31T08:03:20;62.59;40.07;73.00;;
67900;Laerm;54700;51.796;10.956;2023-07-31T08:05:47;62.81;48.05;72.39;;
67900;Laerm;54700;51.796;10.956;2023-07-31T08:08:14;63.02;38.85;70.68;;
67900;Laerm;54700;51.796;10.956;2023-07-31T08:10:42;62.56;42.39;71.43;;
67900;Laerm;54700;51.796;10.956;2023-07-31T08:13:10;62.93;49.38;71.70;;
67900;Laerm;54700;51.796;10.956;2023-07-31T08:15:37;61.85;46.18;70.43;;
67900;Laerm;54700;51.796;10.956;2023-07-31T08:18:04;62.95;50.01;71.29;;
67900;Laerm;54700;51.796;10.956;2023-07-31T08:20:33;62.17;43.28;72.04;;
67900;Laerm;54700;51.796;10.956;2023-07-31T08:22:59;62.59;49.62;69.58;;
67900;Laerm;54700;51.796;10.956;2023-07-31T08:25:26;62.84;42.75;73.23;;
67900;Laerm;54700;51.796;10.956;2023-07-31T08:27:53;63.00;47.46;71.94;;
67900;Laerm;54700;51.796;10.956;2023-07-31T08:30:21;64.86;45.35;76.54;;
67900;Laerm;54700;51.796;10.956;2023-07-31T08:32:49;63.60;50.62;76.70;;
67900;Laerm;54700;51.796;10.956;2023-07-31T08:35:16;60.89;46.41;71.61;;
67900;Laerm;54700;51.796;10.956;2023-07-31T08:37:45;62.29;44.36;71.33;;
67900;Laerm;54700;51.796;10.956;2023-07-31T08:40:12;61.56;44.35;69.96;;
67900;Laerm;54700;51.796;10.956;2023-07-31T08:42:43;63.18;41.77;70.57;;
67900;Laerm;54700;51.796;10.956;2023-07-31T08:45:14;63.18;41.62;79.20;;
67900;Laerm;54700;51.796;10.956;2023-07-31T08:47:44;62.79;43.46;72.36;;
67900;Laerm;54700;51.796;10.956;2023-07-31T08:50:14;61.51;47.39;68.80;;
67900;Laerm;54700;51.796;10.956;2023-07-31T08:52:41;63.94;50.35;74.01;;
67900;Laerm;54700;51.796;10.956;2023-07-31T08:55:09;62.52;47.36;71.01;;
67900;Laerm;54700;51.796;10.956;2023-07-31T08:57:38;64.41;46.98;73.08;;
67900;Laerm;54700;51.796;10.956;2023-07-31T09:00:08;62.40;44.61;73.83;;
67900;Laerm;54700;51.796;10.956;2023-07-31T09:02:39;63.84;45.03;73.16;;
67900;Laerm;54700;51.796;10.956;2023-07-31T09:05:09;65.24;48.52;83.91;;
67900;Laerm;54700;51.796;10.956;2023-07-31T09:07:40;62.43;41.19;71.77;;
67900;Laerm;54700;51.796;10.956;2023-07-31T09:10:13;62.81;45.75;71.21;;
67900;Laerm;54700;51.796;10.956;2023-07-31T09:12:40;61.55;44.64;71.28;;
67900;Laerm;54700;51.796;10.956;2023-07-31T09:15:08;63.39;43.58;72.82;;
67900;Laerm;54700;51.796;10.956;2023-07-31T09:17:36;62.11;41.20;78.61;;
67900;Laerm;54700;51.796;10.956;2023-07-31T09:20:13;64.22;48.63;75.03;;
67900;Laerm;54700;51.796;10.956;2023-07-31T09:22:41;64.36;49.65;76.38;;
67900;Laerm;54700;51.796;10.956;2023-07-31T09:25:16;62.66;45.77;76.09;;
67900;Laerm;54700;51.796;10.956;2023-07-31T09:27:47;61.72;43.22;70.90;;
67900;Laerm;54700;51.796;10.956;2023-07-31T09:30:14;63.03;50.78;71.17;;
67900;Laerm;54700;51.796;10.956;2023-07-31T09:32:42;64.18;46.15;74.37;;
67900;Laerm;54700;51.796;10.956;2023-07-31T09:35:20;63.81;46.85;74.82;;
67900;Laerm;54700;51.796;10.956;2023-07-31T09:37:51;63.28;42.07;73.65;;
67900;Laerm;54700;51.796;10.956;2023-07-31T09:40:30;62.77;45.86;74.61;;
67900;Laerm;54700;51.796;10.956;2023-07-31T09:42:58;62.23;45.92;69.47;;
67900;Laerm;54700;51.796;10.956;2023-07-31T09:45:26;62.96;40.47;71.27;;
67900;Laerm;54700;51.796;10.956;2023-07-31T09:47:53;62.37;39.98;71.14;;
67900;Laerm;54700;51.796;10.956;2023-07-31T09:50:21;64.68;40.43;72.10;;
67900;Laerm;54700;51.796;10.956;2023-07-31T09:52:48;61.76;40.71;70.12;;
67900;Laerm;54700;51.796;10.956;2023-07-31T09:55:16;62.14;38.93;72.41;;
67900;Laerm;54700;51.796;10.956;2023-07-31T09:57:45;62.94;44.07;72.40;;
67900;Laerm;54700;51.796;10.956;2023-07-31T10:00:15;62.98;44.46;70.37;;
67900;Laerm;54700;51.796;10.956;2023-07-31T10:02:45;63.12;45.44;71.18;;
67900;Laerm;54700;51.796;10.956;2023-07-31T10:05:13;64.53;43.10;79.40;;
67900;Laerm;54700;51.796;10.956;2023-07-31T10:07:42;65.82;47.24;79.16;;
67900;Laerm;54700;51.796;10.956;2023-07-31T10:10:13;61.10;43.40;75.21;;
67900;Laerm;54700;51.796;10.956;2023-07-31T10:12:42;63.35;46.95;71.82;;
67900;Laerm;54700;51.796;10.956;2023-07-31T10:15:12;63.86;49.79;69.68;;
67900;Laerm;54700;51.796;10.956;2023-07-31T10:17:39;63.90;49.03;73.10;;
67900;Laerm;54700;51.796;10.956;2023-07-31T10:20:07;65.77;55.28;72.73;;
67900;Laerm;54700;51.796;10.956;2023-07-31T10:22:35;63.00;43.89;72.21;;
67900;Laerm;54700;51.796;10.956;2023-07-31T10:25:03;63.79;41.74;74.83;;
67900;Laerm;54700;51.796;10.956;2023-07-31T10:27:30;64.73;45.66;71.46;;
67900;Laerm;54700;51.796;10.956;2023-07-31T10:29:58;63.92;35.26;75.96;;
67900;Laerm;54700;51.796;10.956;2023-07-31T10:32:28;60.79;34.45;71.21;;
67900;Laerm;54700;51.796;10.956;2023-07-31T10:34:55;63.72;40.00;71.73;;
67900;Laerm;54700;51.796;10.956;2023-07-31T10:37:25;64.76;48.72;73.51;;
67900;Laerm;54700;51.796;10.956;2023-07-31T10:40:00;63.86;42.76;73.60;;
67900;Laerm;54700;51.796;10.956;2023-07-31T10:42:31;62.55;39.12;70.85;;
67900;Laerm;54700;51.796;10.956;2023-07-31T10:45:01;62.84;42.77;71.66;;
67900;Laerm;54700;51.796;10.956;2023-07-31T10:47:29;63.55;38.59;71.36;;
67900;Laerm;54700;51.796;10.956;2023-07-31T10:50:18;61.94;36.08;73.55;;
67900;Laerm;54700;51.796;10.956;2023-07-31T10:52:47;65.26;45.72;80.60;;
67900;Laerm;54700;51.796;10.956;2023-07-31T10:55:32;62.99;39.51;74.95;;
67900;Laerm;54700;51.796;10.956;2023-07-31T10:58:05;61.91;36.77;72.87;;
67900;Laerm;54700;51.796;10.956;2023-07-31T11:00:33;60.53;42.54;69.93;;
67900;Laerm;54700;51.796;10.956;2023-07-31T11:03:05;62.19;43.59;74.53;;
67900;Laerm;54700;51.796;10.956;2023-07-31T11:05:43;63.73;50.46;73.27;;
67900;Laerm;54700;51.796;10.956;2023-07-31T11:08:12;61.17;38.37;74.96;;
67900;Laerm;54700;51.796;10.956;2023-07-31T11:10:39;61.97;41.05;71.13;;
67900;Laerm;54700;51.796;10.956;2023-07-31T11:13:06;61.71;40.10;71.62;;
67900;Laerm;54700;51.796;10.956;2023-07-31T11:15:33;62.50;39.54;73.48;;
67900;Laerm;54700;51.796;10.956;2023-07-31T11:18:00;63.04;37.92;76.00;;
67900;Laerm;54700;51.796;10.956;2023-07-31T11:20:31;62.49;49.30;69.54;;
67900;Laerm;54700;51.796;10.956;2023-07-31T11:23:00;63.05;48.61;70.44;;
67900;Laerm;54700;51.796;10.956;2023-07-31T11:25:29;61.11;38.94;71.76;;
67900;Laerm;54700;51.796;10.956;2023-07-31T11:27:56;63.28;40.43;74.81;;
67900;Laerm;54700;51.796;10.956;2023-07-31T11:30:23;65.48;45.33;78.88;;
67900;Laerm;54700;51.796;10.956;2023-07-31T11:32:50;62.04;36.85;74.46;;
67900;Laerm;54700;51.796;10.956;2023-07-31T11:35:18;61.88;46.28;69.51;;
67900;Laerm;54700;51.796;10.956;2023-07-31T11:37:46;62.95;48.41;71.20;;
67900;Laerm;54700;51.796;10.956;2023-07-31T11:40:14;61.53;43.72;71.16;;
67900;Laerm;54700;51.796;10.956;2023-07-31T11:42:41;62.14;46.54;69.43;;
67900;Laerm;54700;51.796;10.956;2023-07-31T11:45:08;62.02;45.56;71.34;;
67900;Laerm;54700;51.796;10.956;2023-07-31T11:47:36;60.30;45.47;71.75;;
67900;Laerm;54700;51.796;10.956;2023-07-31T11:50:05;65.21;53.32;76.60;;
67900;Laerm;54700;51.796;10.956;2023-07-31T11:52:38;64.99;45.68;84.38;;
67900;Laerm;54700;51.796;10.956;2023-07-31T11:55:09;62.84;49.86;74.39;;
67900;Laerm;54700;51.796;10.956;2023-07-31T11:57:37;63.65;50.12;73.30;;
67900;Laerm;54700;51.796;10.956;2023-07-31T12:00:08;62.95;45.11;72.44;;
67900;Laerm;54700;51.796;10.956;2023-07-31T12:02:36;61.11;40.27;70.17;;
67900;Laerm;54700;51.796;10.956;2023-07-31T12:05:05;61.71;44.81;73.58;;
67900;Laerm;54700;51.796;10.956;2023-07-31T12:07:47;62.63;45.79;73.49;;
67900;Laerm;54700;51.796;10.956;2023-07-31T12:10:26;61.68;45.78;70.09;;
67900;Laerm;54700;51.796;10.956;2023-07-31T12:13:01;62.94;47.03;72.68;;
67900;Laerm;54700;51.796;10.956;2023-07-31T12:15:36;63.33;50.02;70.27;;
67900;Laerm;54700;51.796;10.956;2023-07-31T12:18:05;62.42;42.69;72.75;;
67900;Laerm;54700;51.796;10.956;2023-07-31T12:20:33;63.84;45.82;74.76;;
67900;Laerm;54700;51.796;10.956;2023-07-31T12:23:00;61.15;43.76;71.33;;
67900;Laerm;54700;51.796;10.956;2023-07-31T12:25:33;62.33;42.38;73.12;;
67900;Laerm;54700;51.796;10.956;2023-07-31T12:28:05;63.99;46.70;75.50;;
67900;Laerm;54700;51.796;10.956;2023-07-31T12:30:37;73.92;45.53;95.75;;
67900;Laerm;54700;51.796;10.956;2023-07-31T12:33:05;62.97;52.01;69.76;;
67900;Laerm;54700;51.796;10.956;2023-07-31T12:35:42;62.79;43.37;72.79;;
67900;Laerm;54700;51.796;10.956;2023-07-31T12:38:09;65.20;49.47;77.18;;
67900;Laerm;54700;51.796;10.956;2023-07-31T12:40:38;63.32;52.77;70.82;;
67900;Laerm;54700;51.796;10.956;2023-07-31T12:43:06;61.73;49.03;72.18;;
67900;Laerm;54700;51.796;10.956;2023-07-31T12:45:36;64.63;44.51;76.79;;
67900;Laerm;54700;51.796;10.956;2023-07-31T12:48:03;63.68;50.86;74.73;;
67900;Laerm;54700;51.796;10.956;2023-07-31T12:50:30;63.41;49.53;74.57;;
67900;Laerm;54700;51.796;10.956;2023-07-31T12:52:57;61.89;49.28;72.25;;
67900;Laerm;54700;51.796;10.956;2023-07-31T12:55:24;63.14;46.96;70.65;;
67900;Laerm;54700;51.796;10.956;2023-07-31T12:57:52;64.01;49.12;77.69;;
67900;Laerm;54700;51.796;10.956;2023-07-31T13:00:22;65.76;54.23;72.79;;
67900;Laerm;54700;51.796;10.956;2023-07-31T13:02:48;65.77;56.49;72.82;;
67900;Laerm;54700;51.796;10.956;2023-07-31T13:05:15;65.61;44.81;80.35;;
67900;Laerm;54700;51.796;10.956;2023-07-31T13:07:42;62.89;47.56;71.08;;
67900;Laerm;54700;51.796;10.956;2023-07-31T13:10:10;65.12;50.23;79.66;;
67900;Laerm;54700;51.796;10.956;2023-07-31T13:12:36;63.92;50.41;74.65;;
67900;Laerm;54700;51.796;10.956;2023-07-31T13:15:06;63.74;47.23;74.73;;
67900;Laerm;54700;51.796;10.956;2023-07-31T13:17:35;62.84;44.64;71.90;;
67900;Laerm;54700;51.796;10.956;2023-07-31T13:20:03;62.45;44.72;70.99;;
67900;Laerm;54700;51.796;10.956;2023-07-31T13:22:30;63.93;47.00;70.58;;
67900;Laerm;54700;51.796;10.956;2023-07-31T13:24:58;62.94;42.13;70.87;;
67900;Laerm;54700;51.796;10.956;2023-07-31T13:27:25;65.42;46.23;81.12;;
67900;Laerm;54700;51.796;10.956;2023-07-31T13:29:52;61.61;44.03;74.82;;
67900;Laerm;54700;51.796;10.956;2023-07-31T13:32:20;63.63;48.23;71.01;;
67900;Laerm;54700;51.796;10.956;2023-07-31T13:34:48;63.94;51.33;76.50;;
67900;Laerm;54700;51.796;10.956;2023-07-31T13:37:15;63.93;45.76;73.65;;